Terminal Aerodrome Forecast
Issued by NWS

Home | Current Version | Previous Version | Text Only | Print | Product List | Glossary On
Versions: 1 2 3 4 5 6 7 8 9 10 11 12 13 14
000
FTUS43 KEAX 301100
TAFSTJ
TAF
KSTJ 301122Z 3012/3112 21008KT P6SM FEW150 SCT250
     FM301800 21012G20KT P6SM FEW250
     FM310000 21007KT P6SM FEW250
     FM310700 28005KT P6SM FEW250=

USA.gov is the U.S. government's official web portal to all federal, state and local government web resources and services.